Time;durP1;ratioP1;P1;durP2;ratioP2;P2;SDS_P1;SDS_P2;PMS_P1;PMS_P2;Temp;Humidity;BMP_temperature;BMP_pressure;BME280_temperature;BME280_humidity;BME280_pressure;Samples;Min_cycle;Max_cycle;Signal;HPM_P1;HPM_P2
2023/10/29 00:00:22;;;;;;;0.30;0.30;;;;;;;;;;5072962;28;20479;-87
2023/10/29 00:02:48;;;;;;;0.10;0.10;;;;;;;;;;5056137;28;20043;-87
2023/10/29 00:05:14;;;;;;;0.10;0.10;;;;;;;;;;5055901;28;20052;-86
2023/10/29 00:07:40;;;;;;;0.20;0.20;;;;;;;;;;5056020;28;20032;-87
2023/10/29 00:10:07;;;;;;;0.20;0.20;;;;;;;;;;5039335;28;20709;-87
2023/10/29 00:12:33;;;;;;;0.10;0.10;;;;;;;;;;5055960;28;20472;-87
2023/10/29 00:14:59;;;;;;;0.10;0.10;;;;;;;;;;5055722;28;20106;-87
2023/10/29 00:17:25;;;;;;;0.20;0.20;;;;;;;;;;5056004;28;20040;-86
2023/10/29 00:19:51;;;;;;;0.10;0.10;;;;;;;;;;5072286;28;20037;-87
2023/10/29 00:22:17;;;;;;;0.20;0.20;;;;;;;;;;5056018;28;20048;-87
2023/10/29 00:24:43;;;;;;;0.20;0.20;;;;;;;;;;5055759;28;20135;-87
2023/10/29 00:27:09;;;;;;;0.10;0.10;;;;;;;;;;5038998;28;20036;-87
2023/10/29 00:29:35;;;;;;;0.15;0.15;;;;;;;;;;5072195;28;20040;-87
2023/10/29 00:32:01;;;;;;;0.10;0.10;;;;;;;;;;5055534;28;20055;-87
2023/10/29 00:34:27;;;;;;;0.10;0.10;;;;;;;;;;5039209;28;20036;-86
2023/10/29 00:36:53;;;;;;;0.20;0.20;;;;;;;;;;5072390;28;20040;-86
2023/10/29 00:39:19;;;;;;;0.22;0.22;;;;;;;;;;5055352;28;20124;-87
2023/10/29 00:41:45;;;;;;;0.10;0.10;;;;;;;;;;5055549;28;20083;-86
2023/10/29 00:44:11;;;;;;;0.30;0.30;;;;;;;;;;5055283;28;20072;-87
2023/10/29 00:46:40;;;;;;;0.10;0.10;;;;;;;;;;5071842;28;20467;-87
2023/10/29 00:49:06;;;;;;;0.10;0.10;;;;;;;;;;5038916;28;20036;-87
2023/10/29 00:51:32;;;;;;;0.20;0.20;;;;;;;;;;5055312;28;20041;-87
2023/10/29 00:53:58;;;;;;;0.10;0.10;;;;;;;;;;5038669;28;20072;-86
2023/10/29 00:56:24;;;;;;;0.20;0.20;;;;;;;;;;5055293;28;20055;-86
2023/10/29 00:58:51;;;;;;;0.20;0.20;;;;;;;;;;5071839;28;20044;-86
2023/10/29 01:01:17;;;;;;;0.10;0.10;;;;;;;;;;5038925;28;20043;-86
2023/10/29 01:03:43;;;;;;;0.10;0.10;;;;;;;;;;5071434;28;20051;-86
2023/10/29 01:06:09;;;;;;;0.10;0.10;;;;;;;;;;5071579;28;20044;-86
2023/10/29 01:08:35;;;;;;;0.10;0.10;;;;;;;;;;5038332;28;20068;-86
2023/10/29 01:11:02;;;;;;;0.20;0.20;;;;;;;;;;5054896;28;20072;-87
2023/10/29 01:13:28;;;;;;;0.75;0.75;;;;;;;;;;5071327;28;20036;-87
2023/10/29 01:15:54;;;;;;;0.10;0.10;;;;;;;;;;5054891;28;20111;-86
2023/10/29 01:18:20;;;;;;;0.20;0.20;;;;;;;;;;5054902;28;20039;-86
2023/10/29 01:20:46;;;;;;;0.10;0.10;;;;;;;;;;5038247;28;20128;-86
2023/10/29 01:23:12;;;;;;;0.10;0.10;;;;;;;;;;5071352;28;20123;-86
2023/10/29 01:25:38;;;;;;;0.20;0.20;;;;;;;;;;5054629;28;20048;-86
2023/10/29 01:28:05;;;;;;;0.20;0.20;;;;;;;;;;5038011;28;20044;-86
2023/10/29 01:30:31;;;;;;;0.20;0.20;;;;;;;;;;5054945;28;20058;-86
2023/10/29 01:32:57;;;;;;;1.15;0.35;;;;;;;;;;5038003;28;20398;-86
2023/10/29 01:35:22;;;;;;;0.10;0.10;;;;;;;;;;5054346;28;20070;-86
2023/10/29 01:37:50;;;;;;;0.10;0.10;;;;;;;;;;5071185;28;20123;-86
2023/10/29 01:40:16;;;;;;;0.10;0.10;;;;;;;;;;5054567;28;20036;-86
2023/10/29 01:42:43;;;;;;;0.10;0.10;;;;;;;;;;5071000;28;20040;-87
2023/10/29 01:45:11;;;;;;;0.10;0.10;;;;;;;;;;5054189;28;20048;-85
2023/10/29 01:47:37;;;;;;;0.10;0.10;;;;;;;;;;5038271;28;20041;-85
2023/10/29 01:50:04;;;;;;;0.20;0.20;;;;;;;;;;5070856;28;20551;-85
2023/10/29 01:52:30;;;;;;;0.10;0.10;;;;;;;;;;5037880;28;20097;-85
2023/10/29 01:54:57;;;;;;;0.10;0.10;;;;;;;;;;5054133;28;20052;-86
2023/10/29 01:57:23;;;;;;;0.10;0.10;;;;;;;;;;5054564;28;20368;-86
2023/10/29 01:59:49;;;;;;;0.20;0.20;;;;;;;;;;5054267;28;20041;-86
2023/10/29 02:02:15;;;;;;;0.10;0.10;;;;;;;;;;5054304;28;20131;-86
2023/10/29 02:04:41;;;;;;;0.10;0.10;;;;;;;;;;5070505;28;20049;-86
2023/10/29 02:07:07;;;;;;;0.10;0.10;;;;;;;;;;5054224;28;20557;-86
2023/10/29 02:09:33;;;;;;;0.10;0.10;;;;;;;;;;5053992;28;20036;-87
2023/10/29 02:11:59;;;;;;;0.10;0.10;;;;;;;;;;5037877;28;20032;-87
2023/10/29 02:14:25;;;;;;;0.15;0.15;;;;;;;;;;5054088;28;20548;-86
2023/10/29 02:16:51;;;;;;;0.13;0.13;;;;;;;;;;5037662;28;20131;-86
2023/10/29 02:19:17;;;;;;;0.10;0.10;;;;;;;;;;5053959;28;20068;-87
2023/10/29 02:21:43;;;;;;;0.20;0.20;;;;;;;;;;5037747;28;20090;-86
2023/10/29 02:24:09;;;;;;;0.10;0.10;;;;;;;;;;5070577;28;20090;-87
2023/10/29 02:26:35;;;;;;;0.10;0.10;;;;;;;;;;5070610;28;20083;-87
2023/10/29 02:29:01;;;;;;;0.10;0.10;;;;;;;;;;5053827;28;20073;-87
2023/10/29 02:31:27;;;;;;;0.15;0.15;;;;;;;;;;5037347;28;20535;-87
2023/10/29 02:33:53;;;;;;;0.10;0.10;;;;;;;;;;5054122;28;20040;-86
2023/10/29 02:36:19;;;;;;;0.20;0.20;;;;;;;;;;5054171;28;20049;-86
2023/10/29 02:38:45;;;;;;;0.40;0.35;;;;;;;;;;5053670;28;20040;-86
2023/10/29 02:41:11;;;;;;;0.10;0.10;;;;;;;;;;5054077;28;20041;-86
2023/10/29 02:43:41;;;;;;;0.10;0.10;;;;;;;;;;5037250;28;20076;-86
2023/10/29 02:46:07;;;;;;;0.20;0.20;;;;;;;;;;5054651;28;20036;-87
2023/10/29 02:48:33;;;;;;;0.20;0.20;;;;;;;;;;5074263;28;20044;-86
2023/10/29 02:50:59;;;;;;;0.10;0.10;;;;;;;;;;5041043;28;20483;-86
2023/10/29 02:53:25;;;;;;;0.10;0.10;;;;;;;;;;5057550;28;20037;-87
2023/10/29 02:55:51;;;;;;;0.10;0.10;;;;;;;;;;5041285;28;20036;-87
2023/10/29 02:58:16;;;;;;;0.10;0.10;;;;;;;;;;5074053;28;20123;-87
2023/10/29 03:00:42;;;;;;;0.10;0.10;;;;;;;;;;5057722;28;20059;-88
2023/10/29 03:03:08;;;;;;;0.20;0.20;;;;;;;;;;5057273;28;20036;-88
2023/10/29 03:05:34;;;;;;;0.10;0.10;;;;;;;;;;5057451;28;20377;-87
2023/10/29 03:08:01;;;;;;;0.22;0.22;;;;;;;;;;5074034;28;20043;-88
2023/10/29 03:10:27;;;;;;;0.10;0.10;;;;;;;;;;5041034;28;20036;-88
2023/10/29 03:12:54;;;;;;;0.10;0.10;;;;;;;;;;5057324;28;20082;-87
2023/10/29 03:15:20;;;;;;;0.20;0.20;;;;;;;;;;5057473;28;20044;-87
2023/10/29 03:17:46;;;;;;;0.10;0.10;;;;;;;;;;5057110;28;20613;-87
2023/10/29 03:20:12;;;;;;;0.10;0.10;;;;;;;;;;5057043;28;20036;-87
2023/10/29 03:22:38;;;;;;;0.10;0.10;;;;;;;;;;5073493;28;20040;-86
2023/10/29 03:25:04;;;;;;;0.10;0.10;;;;;;;;;;5073485;28;20041;-87
2023/10/29 03:27:30;;;;;;;0.10;0.10;;;;;;;;;;5073484;28;20047;-86
2023/10/29 03:29:56;;;;;;;0.10;0.10;;;;;;;;;;5056883;28;20036;-86
2023/10/29 03:32:22;;;;;;;0.10;0.10;;;;;;;;;;5073607;28;20032;-87
2023/10/29 03:34:48;;;;;;;0.10;0.10;;;;;;;;;;5040495;28;20438;-87
2023/10/29 03:37:14;;;;;;;0.10;0.10;;;;;;;;;;5056630;28;20040;-87
2023/10/29 03:39:40;;;;;;;0.10;0.10;;;;;;;;;;5056829;28;20127;-86
2023/10/29 03:42:06;;;;;;;0.10;0.10;;;;;;;;;;5056636;28;20115;-86
2023/10/29 03:44:32;;;;;;;0.20;0.20;;;;;;;;;;5073144;28;20048;-87
2023/10/29 03:46:58;;;;;;;0.10;0.10;;;;;;;;;;5056641;28;20127;-87
2023/10/29 03:49:24;;;;;;;0.10;0.10;;;;;;;;;;5056420;28;20041;-86
2023/10/29 03:51:50;;;;;;;0.10;0.10;;;;;;;;;;5056410;28;20091;-88
2023/10/29 03:54:16;;;;;;;0.30;0.30;;;;;;;;;;5056298;28;20044;-87
2023/10/29 03:56:42;;;;;;;0.20;0.20;;;;;;;;;;5039218;28;20051;-87
2023/10/29 03:59:08;;;;;;;0.20;0.20;;;;;;;;;;5039419;28;20097;-88
2023/10/29 04:01:34;;;;;;;0.20;0.20;;;;;;;;;;5056202;28;20048;-88
2023/10/29 04:04:02;;;;;;;0.10;0.10;;;;;;;;;;5056062;28;20063;-87
2023/10/29 04:06:28;;;;;;;0.10;0.10;;;;;;;;;;5056287;28;20142;-88
2023/10/29 04:08:54;;;;;;;0.10;0.10;;;;;;;;;;5056009;28;20432;-88
2023/10/29 04:11:20;;;;;;;0.10;0.10;;;;;;;;;;5056336;28;20227;-86
2023/10/29 04:13:47;;;;;;;0.20;0.20;;;;;;;;;;5056023;28;20044;-87
2023/10/29 04:16:13;;;;;;;0.10;0.10;;;;;;;;;;5039568;28;20550;-87
2023/10/29 04:18:39;;;;;;;0.30;0.30;;;;;;;;;;5056193;28;20130;-87
2023/10/29 04:21:08;;;;;;;0.57;0.57;;;;;;;;;;5055823;28;20440;-87
2023/10/29 04:23:36;;;;;;;0.10;0.10;;;;;;;;;;5072361;28;20041;-87
2023/10/29 04:26:02;;;;;;;0.20;0.20;;;;;;;;;;5055631;28;20048;-89
2023/10/29 04:28:28;;;;;;;0.20;0.20;;;;;;;;;;5055975;28;20033;-88
2023/10/29 04:30:55;;;;;;;0.10;0.10;;;;;;;;;;5055681;28;20041;-87
2023/10/29 04:33:22;;;;;;;0.10;0.10;;;;;;;;;;5055665;28;20044;-87
2023/10/29 04:35:48;;;;;;;0.10;0.10;;;;;;;;;;5039366;28;20058;-87
2023/10/29 04:38:14;;;;;;;0.20;0.20;;;;;;;;;;5039007;28;20535;-88
2023/10/29 04:40:40;;;;;;;0.20;0.20;;;;;;;;;;5055413;28;20098;-88
2023/10/29 04:43:06;;;;;;;0.10;0.10;;;;;;;;;;5072047;28;20043;-87
2023/10/29 04:45:31;;;;;;;0.10;0.10;;;;;;;;;;5038918;28;20388;-87
2023/10/29 04:47:58;;;;;;;0.10;0.10;;;;;;;;;;5055314;28;20032;-87
2023/10/29 04:50:24;;;;;;;0.10;0.10;;;;;;;;;;5071856;28;20044;-87
2023/10/29 04:52:50;;;;;;;0.10;0.10;;;;;;;;;;5055204;28;20041;-88
2023/10/29 04:55:16;;;;;;;0.10;0.10;;;;;;;;;;5055254;28;20040;-87
2023/10/29 04:57:41;;;;;;;0.10;0.10;;;;;;;;;;5055168;28;20036;-88
2023/10/29 05:00:08;;;;;;;0.10;0.10;;;;;;;;;;5055094;28;20075;-87
2023/10/29 05:02:35;;;;;;;0.10;0.10;;;;;;;;;;5055138;28;20044;-87
2023/10/29 05:05:01;;;;;;;0.10;0.10;;;;;;;;;;5055129;28;20132;-87
2023/10/29 05:07:27;;;;;;;0.10;0.10;;;;;;;;;;5055054;28;20044;-88
2023/10/29 05:09:53;;;;;;;0.10;0.10;;;;;;;;;;5070718;28;20359;-88
2023/10/29 05:12:19;;;;;;;0.28;0.28;;;;;;;;;;5038261;28;20036;-87
2023/10/29 05:14:50;;;;;;;0.10;0.10;;;;;;;;;;5055097;28;20044;-88
2023/10/29 05:17:16;;;;;;;0.20;0.20;;;;;;;;;;5038927;28;20064;-87
2023/10/29 05:19:43;;;;;;;0.10;0.10;;;;;;;;;;5038105;28;20048;-87
2023/10/29 05:22:09;;;;;;;0.10;0.10;;;;;;;;;;5071294;28;20491;-87
2023/10/29 05:24:35;;;;;;;0.10;0.10;;;;;;;;;;5054549;28;20072;-87
2023/10/29 05:27:01;;;;;;;0.10;0.10;;;;;;;;;;5055057;28;20075;-88
2023/10/29 05:29:27;;;;;;;1.88;0.25;;;;;;;;;;5071347;28;20036;-88
2023/10/29 05:31:53;;;;;;;0.10;0.10;;;;;;;;;;5054500;28;20119;-87
2023/10/29 05:34:19;;;;;;;0.10;0.10;;;;;;;;;;5038191;28;20376;-87
2023/10/29 05:36:45;;;;;;;0.30;0.30;;;;;;;;;;5037733;28;20043;-88
2023/10/29 05:39:11;;;;;;;0.10;0.10;;;;;;;;;;5054396;28;20040;-87
2023/10/29 05:41:37;;;;;;;0.10;0.10;;;;;;;;;;5037817;28;20060;-87
2023/10/29 05:44:04;;;;;;;0.10;0.10;;;;;;;;;;5054390;28;20044;-88
2023/10/29 05:46:30;;;;;;;0.20;0.20;;;;;;;;;;5037921;28;20052;-88
2023/10/29 05:48:55;;;;;;;0.10;0.10;;;;;;;;;;5054238;28;20036;-87
2023/10/29 05:51:21;;;;;;;0.10;0.10;;;;;;;;;;5054368;28;20055;-87
2023/10/29 05:53:47;;;;;;;0.10;0.10;;;;;;;;;;5037993;28;20044;-88
2023/10/29 05:56:13;;;;;;;0.10;0.10;;;;;;;;;;5070867;28;20043;-88
2023/10/29 05:58:39;;;;;;;0.10;0.10;;;;;;;;;;5054117;28;20135;-87
2023/10/29 06:01:06;;;;;;;0.10;0.10;;;;;;;;;;5054539;28;20044;-87
2023/10/29 06:03:33;;;;;;;0.10;0.10;;;;;;;;;;5070600;28;20090;-87
2023/10/29 06:05:59;;;;;;;0.10;0.10;;;;;;;;;;5054123;28;20040;-87
2023/10/29 06:08:25;;;;;;;0.20;0.20;;;;;;;;;;5054120;28;20036;-86
2023/10/29 06:10:52;;;;;;;0.10;0.10;;;;;;;;;;5037360;28;20454;-87
2023/10/29 06:13:18;;;;;;;0.20;0.20;;;;;;;;;;5054373;28;20044;-86
2023/10/29 06:15:44;;;;;;;0.10;0.10;;;;;;;;;;5054381;28;20067;-86
2023/10/29 06:18:10;;;;;;;0.10;0.10;;;;;;;;;;5070626;28;20492;-87
2023/10/29 06:20:40;;;;;;;0.10;0.10;;;;;;;;;;5056084;28;20040;-87
2023/10/29 06:23:06;;;;;;;0.10;0.10;;;;;;;;;;5058394;28;20052;-87
2023/10/29 06:25:32;;;;;;;0.10;0.10;;;;;;;;;;5058068;28;20040;-86
2023/10/29 06:27:58;;;;;;;0.10;0.10;;;;;;;;;;5074851;28;20340;-87
2023/10/29 06:30:24;;;;;;;0.10;0.10;;;;;;;;;;5057907;28;20124;-86
2023/10/29 06:32:50;;;;;;;0.10;0.10;;;;;;;;;;5041742;28;20033;-86
2023/10/29 06:35:16;;;;;;;0.10;0.10;;;;;;;;;;5074614;28;20045;-86
2023/10/29 06:37:42;;;;;;;0.10;0.10;;;;;;;;;;5057992;28;20194;-86
2023/10/29 06:40:08;;;;;;;0.10;0.10;;;;;;;;;;5058069;28;20052;-87
2023/10/29 06:42:34;;;;;;;0.10;0.10;;;;;;;;;;5058182;28;20364;-88
2023/10/29 06:45:02;;;;;;;0.10;0.10;;;;;;;;;;5057687;28;20093;-88
2023/10/29 06:47:28;;;;;;;0.10;0.10;;;;;;;;;;5057870;28;20055;-88
2023/10/29 06:49:55;;;;;;;0.10;0.10;;;;;;;;;;5057573;28;20044;-87
2023/10/29 06:52:21;;;;;;;0.10;0.10;;;;;;;;;;5057752;28;20097;-87
2023/10/29 06:54:48;;;;;;;0.10;0.10;;;;;;;;;;5057564;28;20047;-87
2023/10/29 06:57:14;;;;;;;0.10;0.10;;;;;;;;;;5057293;28;20049;-87
2023/10/29 06:59:40;;;;;;;0.43;0.30;;;;;;;;;;5057789;28;20036;-87
2023/10/29 07:02:06;;;;;;;0.15;0.15;;;;;;;;;;5057518;28;20037;-88
2023/10/29 07:04:33;;;;;;;0.10;0.10;;;;;;;;;;5040597;28;20088;-88
2023/10/29 07:06:59;;;;;;;0.10;0.10;;;;;;;;;;5057475;28;20041;-88
2023/10/29 07:09:25;;;;;;;0.17;0.17;;;;;;;;;;5055484;28;20039;-88
2023/10/29 07:11:51;;;;;;;0.10;0.10;;;;;;;;;;5040959;28;20447;-88
2023/10/29 07:14:17;;;;;;;0.10;0.10;;;;;;;;;;5040428;28;20048;-88
2023/10/29 07:16:44;;;;;;;0.10;0.10;;;;;;;;;;5057006;28;20122;-91
2023/10/29 07:19:11;;;;;;;0.10;0.10;;;;;;;;;;5040232;28;20040;-90
2023/10/29 07:21:37;;;;;;;0.10;0.10;;;;;;;;;;5040334;28;20037;-89
2023/10/29 07:24:05;;;;;;;0.10;0.10;;;;;;;;;;5056713;28;20040;-89
2023/10/29 07:26:31;;;;;;;0.10;0.10;;;;;;;;;;5040098;28;20082;-89
2023/10/29 07:28:57;;;;;;;0.10;0.10;;;;;;;;;;5040166;28;20036;-89
2023/10/29 07:31:23;;;;;;;0.10;0.10;;;;;;;;;;5056418;28;20033;-88
2023/10/29 07:33:49;;;;;;;0.10;0.10;;;;;;;;;;5039487;28;20525;-88
2023/10/29 07:36:17;;;;;;;0.20;0.20;;;;;;;;;;5056941;28;20404;-89
2023/10/29 07:38:43;;;;;;;0.15;0.15;;;;;;;;;;5040142;28;20095;-89
2023/10/29 07:41:09;;;;;;;0.10;0.10;;;;;;;;;;5056373;28;20068;-88
2023/10/29 07:43:35;;;;;;;0.10;0.10;;;;;;;;;;5056872;28;20054;-88
2023/10/29 07:46:02;;;;;;;0.10;0.10;;;;;;;;;;5038710;28;20033;-88
2023/10/29 07:48:28;;;;;;;0.10;0.10;;;;;;;;;;5039523;28;20067;-89
2023/10/29 07:50:54;;;;;;;0.10;0.10;;;;;;;;;;5039496;28;20480;-90
2023/10/29 07:53:20;;;;;;;0.20;0.20;;;;;;;;;;5039695;28;20047;-90
2023/10/29 07:55:46;;;;;;;0.10;0.10;;;;;;;;;;5056935;28;20044;-91
2023/10/29 07:58:12;;;;;;;0.10;0.10;;;;;;;;;;5039958;28;20044;-91
2023/10/29 08:00:39;;;;;;;0.10;0.10;;;;;;;;;;5040088;28;20154;-89
2023/10/29 08:03:07;;;;;;;0.10;0.10;;;;;;;;;;5058674;28;20060;-93
2023/10/29 08:05:33;;;;;;;0.10;0.10;;;;;;;;;;5040921;28;20442;-89
2023/10/29 08:08:01;;;;;;;0.10;0.10;;;;;;;;;;5072537;28;20183;-91
2023/10/29 08:10:27;;;;;;;0.20;0.20;;;;;;;;;;5039955;28;20445;-93
2023/10/29 08:12:55;;;;;;;0.10;0.10;;;;;;;;;;5039485;28;20047;-89
2023/10/29 08:15:21;;;;;;;0.30;0.30;;;;;;;;;;5039591;28;20102;-90
2023/10/29 08:17:47;;;;;;;0.10;0.10;;;;;;;;;;5039317;28;20127;-89
2023/10/29 08:20:14;;;;;;;0.10;0.10;;;;;;;;;;5055626;28;20082;-89
2023/10/29 08:22:40;;;;;;;0.10;0.10;;;;;;;;;;5039246;28;20036;-87
2023/10/29 08:25:07;;;;;;;0.10;0.10;;;;;;;;;;5056037;28;20128;-88
2023/10/29 08:27:33;;;;;;;0.10;0.10;;;;;;;;;;5056110;28;20459;-88
2023/10/29 08:29:59;;;;;;;0.10;0.10;;;;;;;;;;5055507;28;20068;-89
2023/10/29 08:32:27;;;;;;;0.10;0.10;;;;;;;;;;5055950;28;20041;-89
2023/10/29 08:34:53;;;;;;;0.10;0.10;;;;;;;;;;5055359;28;20040;-89
2023/10/29 08:37:21;;;;;;;0.10;0.10;;;;;;;;;;5039357;28;20050;-88
2023/10/29 08:39:46;;;;;;;0.20;0.20;;;;;;;;;;5055395;28;20166;-87
2023/10/29 08:42:12;;;;;;;0.10;0.10;;;;;;;;;;5055432;28;20078;-88
2023/10/29 08:44:38;;;;;;;0.10;0.10;;;;;;;;;;5054184;28;20484;-88
2023/10/29 08:47:04;;;;;;;0.10;0.10;;;;;;;;;;5055347;28;20039;-88
2023/10/29 08:49:30;;;;;;;0.15;0.15;;;;;;;;;;5071918;28;20032;-89
2023/10/29 08:51:56;;;;;;;0.10;0.10;;;;;;;;;;5055206;28;20364;-89
2023/10/29 08:54:23;;;;;;;0.22;0.22;;;;;;;;;;5054984;28;20550;-91
2023/10/29 08:56:49;;;;;;;0.10;0.10;;;;;;;;;;5055415;28;20051;-92
2023/10/29 08:59:15;;;;;;;0.10;0.10;;;;;;;;;;5055488;28;20040;-92
2023/10/29 09:01:42;;;;;;;0.10;0.10;;;;;;;;;;5055072;28;20399;-91
2023/10/29 09:04:10;;;;;;;0.10;0.10;;;;;;;;;;5055090;28;20053;-89
2023/10/29 09:06:37;;;;;;;0.10;0.10;;;;;;;;;;5051690;28;20049;-91
2023/10/29 09:09:04;;;;;;;0.10;0.10;;;;;;;;;;5035279;28;20037;-91
2023/10/29 09:11:30;;;;;;;0.10;0.10;;;;;;;;;;5054304;28;20093;-91
2023/10/29 09:13:57;;;;;;;0.10;0.10;;;;;;;;;;5054817;28;20476;-89
2023/10/29 09:16:23;;;;;;;0.10;0.10;;;;;;;;;;5055334;28;20052;-90
2023/10/29 09:18:49;;;;;;;0.20;0.20;;;;;;;;;;5054601;28;20140;-91
2023/10/29 09:21:15;;;;;;;0.10;0.10;;;;;;;;;;5055099;28;20530;-90
2023/10/29 09:23:42;;;;;;;0.10;0.10;;;;;;;;;;5054350;28;20040;-90
2023/10/29 09:26:08;;;;;;;0.13;0.13;;;;;;;;;;5054315;28;20337;-91
2023/10/29 09:28:34;;;;;;;0.10;0.10;;;;;;;;;;5038019;28;20094;-91
2023/10/29 09:31:00;;;;;;;0.20;0.20;;;;;;;;;;5054387;28;20347;-91
2023/10/29 09:33:26;;;;;;;0.10;0.10;;;;;;;;;;5038074;28;20072;-91
2023/10/29 09:35:52;;;;;;;0.10;0.10;;;;;;;;;;5054342;28;20071;-89
2023/10/29 09:38:20;;;;;;;0.10;0.10;;;;;;;;;;5054189;28;20058;-88
2023/10/29 09:40:48;;;;;;;0.10;0.10;;;;;;;;;;5070707;28;20037;-88
2023/10/29 09:43:14;;;;;;;0.10;0.10;;;;;;;;;;5054301;28;20048;-88
2023/10/29 09:45:45;;;;;;;0.10;0.10;;;;;;;;;;5054149;28;20044;-88
2023/10/29 09:48:17;;;;;;;0.10;0.10;;;;;;;;;;5054209;28;20438;-87
2023/10/29 09:50:43;;;;;;;0.10;0.10;;;;;;;;;;5054709;28;20082;-89
2023/10/29 09:53:16;;;;;;;0.10;0.10;;;;;;;;;;5054070;28;20453;-89
2023/10/29 09:55:42;;;;;;;0.15;0.15;;;;;;;;;;5037624;28;20040;-88
2023/10/29 09:58:09;;;;;;;0.20;0.20;;;;;;;;;;5054379;28;20127;-88
2023/10/29 10:00:36;;;;;;;0.15;0.15;;;;;;;;;;5037487;28;20041;-92
2023/10/29 10:03:02;;;;;;;0.10;0.10;;;;;;;;;;5037549;28;20166;-86
2023/10/29 10:05:29;;;;;;;0.28;0.28;;;;;;;;;;5038076;28;20486;-86
2023/10/29 10:07:55;;;;;;;0.20;0.20;;;;;;;;;;5054090;28;20051;-86
2023/10/29 10:10:21;;;;;;;0.20;0.20;;;;;;;;;;5053865;28;20071;-87
2023/10/29 10:12:48;;;;;;;0.17;0.17;;;;;;;;;;5053691;28;20488;-87
2023/10/29 10:15:14;;;;;;;0.10;0.10;;;;;;;;;;5053952;28;20050;-87
2023/10/29 10:17:44;;;;;;;0.10;0.10;;;;;;;;;;5037368;28;20123;-87
2023/10/29 10:20:11;;;;;;;0.10;0.10;;;;;;;;;;5053968;28;20045;-87
2023/10/29 10:22:37;;;;;;;0.20;0.20;;;;;;;;;;5037501;28;20094;-86
2023/10/29 10:25:03;;;;;;;0.60;0.60;;;;;;;;;;5070293;28;20114;-86
2023/10/29 10:27:29;;;;;;;0.17;0.17;;;;;;;;;;5037182;28;20062;-86
2023/10/29 10:29:55;;;;;;;0.50;0.43;;;;;;;;;;5037424;28;20344;-87
2023/10/29 10:32:24;;;;;;;0.20;0.20;;;;;;;;;;5053920;28;20043;-86
2023/10/29 10:34:51;;;;;;;0.10;0.10;;;;;;;;;;5053736;28;20040;-86
2023/10/29 10:37:17;;;;;;;0.10;0.10;;;;;;;;;;5053587;28;20044;-87
2023/10/29 10:39:43;;;;;;;0.10;0.10;;;;;;;;;;5070108;28;20051;-86
2023/10/29 10:42:09;;;;;;;0.10;0.10;;;;;;;;;;5044126;28;20398;-87
2023/10/29 10:44:36;;;;;;;0.20;0.20;;;;;;;;;;5086588;28;20054;-86
2023/10/29 10:47:03;;;;;;;0.15;0.15;;;;;;;;;;5070375;28;20037;-88
2023/10/29 10:49:31;;;;;;;0.10;0.10;;;;;;;;;;5053450;28;20048;-90
2023/10/29 10:51:58;;;;;;;0.10;0.10;;;;;;;;;;5037500;28;20090;-89
2023/10/29 10:54:25;;;;;;;0.50;0.50;;;;;;;;;;5053600;28;20067;-89
2023/10/29 10:56:52;;;;;;;0.10;0.10;;;;;;;;;;5053681;28;20032;-88
2023/10/29 10:59:18;;;;;;;0.10;0.10;;;;;;;;;;5070031;28;20086;-88
2023/10/29 11:01:44;;;;;;;0.10;0.10;;;;;;;;;;5054571;28;20036;-88
2023/10/29 11:04:10;;;;;;;0.10;0.10;;;;;;;;;;5069914;28;20052;-88
2023/10/29 11:06:37;;;;;;;0.10;0.10;;;;;;;;;;5070392;28;20067;-88
2023/10/29 11:09:05;;;;;;;0.10;0.10;;;;;;;;;;5056747;28;20039;-89
2023/10/29 11:11:33;;;;;;;0.10;0.10;;;;;;;;;;5041008;28;20369;-90
2023/10/29 11:14:12;;;;;;;0.10;0.10;;;;;;;;;;5057054;28;20174;-90
2023/10/29 11:16:47;;;;;;;0.10;0.10;;;;;;;;;;5057325;28;20407;-88
2023/10/29 11:19:33;;;;;;;0.10;0.10;;;;;;;;;;5056818;28;20048;-88
2023/10/29 11:22:14;;;;;;;0.10;0.10;;;;;;;;;;5057022;28;20040;-89
2023/10/29 11:24:40;;;;;;;0.10;0.10;;;;;;;;;;5040405;28;20446;-90
2023/10/29 11:27:25;;;;;;;0.10;0.10;;;;;;;;;;5057320;28;20279;-89
2023/10/29 11:29:51;;;;;;;0.10;0.10;;;;;;;;;;5056764;28;20036;-89
2023/10/29 11:32:24;;;;;;;0.10;0.10;;;;;;;;;;5040194;28;20055;-89
2023/10/29 11:35:05;;;;;;;0.10;0.10;;;;;;;;;;5057018;28;20045;-90
2023/10/29 11:37:35;;;;;;;0.10;0.10;;;;;;;;;;5056792;28;20050;-90
2023/10/29 11:40:21;;;;;;;0.10;0.10;;;;;;;;;;5056780;28;20045;-90
2023/10/29 11:42:47;;;;;;;0.10;0.10;;;;;;;;;;5073438;28;20051;-91
2023/10/29 11:45:28;;;;;;;0.10;0.10;;;;;;;;;;5040122;28;20123;-92
2023/10/29 11:48:07;;;;;;;0.30;0.30;;;;;;;;;;5073170;28;20043;-89
2023/10/29 11:50:36;;;;;;;0.10;0.10;;;;;;;;;;5072948;28;20036;-89
2023/10/29 11:53:02;;;;;;;0.10;0.10;;;;;;;;;;5056536;28;20175;-89
2023/10/29 11:55:37;;;;;;;0.10;0.10;;;;;;;;;;5056653;28;20555;-94
2023/10/29 11:58:03;;;;;;;0.10;0.10;;;;;;;;;;5055004;28;20048;-89
2023/10/29 12:00:37;;;;;;;0.20;0.20;;;;;;;;;;5056060;28;20047;-90
2023/10/29 12:03:03;;;;;;;0.10;0.10;;;;;;;;;;5072630;28;20075;-90
2023/10/29 12:05:29;;;;;;;0.20;0.20;;;;;;;;;;5072551;28;20053;-90
2023/10/29 12:07:59;;;;;;;0.10;0.10;;;;;;;;;;5072687;28;20407;-90
2023/10/29 12:10:25;;;;;;;0.10;0.10;;;;;;;;;;5072434;28;20041;-90
2023/10/29 12:12:52;;;;;;;0.10;0.10;;;;;;;;;;5039576;28;20048;-90
2023/10/29 12:15:18;;;;;;;0.10;0.10;;;;;;;;;;5057422;28;20044;-89
2023/10/29 12:17:45;;;;;;;0.10;0.10;;;;;;;;;;5055628;28;20040;-89
2023/10/29 12:20:21;;;;;;;0.10;0.10;;;;;;;;;;5055773;28;20044;-89
2023/10/29 12:22:47;;;;;;;0.10;0.10;;;;;;;;;;5056009;28;20398;-89
2023/10/29 12:25:15;;;;;;;0.10;0.10;;;;;;;;;;5038994;28;20520;-93
2023/10/29 12:27:44;;;;;;;0.10;0.10;;;;;;;;;;5075947;28;20044;-91
2023/10/29 12:30:30;;;;;;;0.20;0.20;;;;;;;;;;5073117;28;20036;-92
2023/10/29 12:33:14;;;;;;;0.10;0.10;;;;;;;;;;5055648;28;20047;-91
2023/10/29 12:35:40;;;;;;;0.10;0.10;;;;;;;;;;5040197;28;20115;-92
2023/10/29 12:38:06;;;;;;;0.10;0.10;;;;;;;;;;5056208;28;20131;-88
2023/10/29 12:40:32;;;;;;;0.10;0.10;;;;;;;;;;5055654;28;20123;-89
2023/10/29 12:42:58;;;;;;;0.10;0.10;;;;;;;;;;5055467;28;20040;-89
2023/10/29 12:45:28;;;;;;;0.10;0.10;;;;;;;;;;5038983;28;20049;-90
2023/10/29 12:48:10;;;;;;;0.20;0.20;;;;;;;;;;5039043;28;20040;-89
2023/10/29 12:50:49;;;;;;;0.10;0.10;;;;;;;;;;5072096;28;20036;-89
2023/10/29 12:53:25;;;;;;;0.20;0.20;;;;;;;;;;5055462;28;20055;-89
2023/10/29 12:55:51;;;;;;;0.10;0.10;;;;;;;;;;5055528;28;20502;-89
2023/10/29 12:58:17;;;;;;;0.10;0.10;;;;;;;;;;5055766;28;20084;-89
2023/10/29 13:00:43;;;;;;;0.15;0.15;;;;;;;;;;5055446;28;20041;-89
2023/10/29 13:03:10;;;;;;;0.30;0.30;;;;;;;;;;5055244;28;20069;-89
2023/10/29 13:05:37;;;;;;;0.10;0.10;;;;;;;;;;5055244;28;20058;-89
2023/10/29 13:08:06;;;;;;;0.10;0.10;;;;;;;;;;5039344;28;20036;-91
2023/10/29 13:10:35;;;;;;;0.10;0.10;;;;;;;;;;5073653;28;20098;-92
2023/10/29 13:13:06;;;;;;;0.10;0.10;;;;;;;;;;5039769;28;20078;-92
2023/10/29 13:15:32;;;;;;;0.10;0.10;;;;;;;;;;5040033;28;20044;-93
2023/10/29 13:18:08;;;;;;;0.20;0.20;;;;;;;;;;5039248;28;20045;-91
2023/10/29 13:20:36;;;;;;;0.10;0.10;;;;;;;;;;5039005;28;20136;-93
2023/10/29 13:23:02;;;;;;;0.20;0.20;;;;;;;;;;5039173;28;20045;-93
2023/10/29 13:25:29;;;;;;;0.10;0.10;;;;;;;;;;5055801;28;20044;-93
2023/10/29 13:27:58;;;;;;;0.10;0.10;;;;;;;;;;5056435;28;20372;-93
2023/10/29 13:30:25;;;;;;;0.10;0.10;;;;;;;;;;5055056;28;20070;-95
2023/10/29 13:32:51;;;;;;;0.10;0.10;;;;;;;;;;5039510;28;20052;-92
2023/10/29 13:35:19;;;;;;;0.10;0.10;;;;;;;;;;5056345;28;20044;-94
2023/10/29 13:37:48;;;;;;;0.17;0.17;;;;;;;;;;5055875;28;20356;-93
2023/10/29 13:40:15;;;;;;;0.20;0.20;;;;;;;;;;5039224;28;20040;-90
2023/10/29 13:42:41;;;;;;;0.10;0.10;;;;;;;;;;5038138;28;20487;-90
2023/10/29 13:45:07;;;;;;;0.10;0.10;;;;;;;;;;5037766;28;20078;-89
2023/10/29 13:47:33;;;;;;;0.20;0.20;;;;;;;;;;5054469;28;20040;-89
2023/10/29 13:49:59;;;;;;;0.10;0.10;;;;;;;;;;5054154;28;20453;-89
2023/10/29 13:52:25;;;;;;;0.10;0.10;;;;;;;;;;5054186;28;20047;-89
2023/10/29 13:54:51;;;;;;;0.13;0.13;;;;;;;;;;5054054;28;20124;-89
2023/10/29 13:57:17;;;;;;;0.10;0.10;;;;;;;;;;5054033;28;20050;-88
2023/10/29 13:59:43;;;;;;;0.20;0.20;;;;;;;;;;5071031;28;20040;-88
2023/10/29 14:02:09;;;;;;;0.10;0.10;;;;;;;;;;5070593;28;20052;-89
2023/10/29 14:04:35;;;;;;;0.10;0.10;;;;;;;;;;5037452;28;20055;-89
2023/10/29 14:07:01;;;;;;;0.10;0.10;;;;;;;;;;5037417;28;20032;-89
2023/10/29 14:09:27;;;;;;;0.10;0.10;;;;;;;;;;5037278;28;20177;-89
2023/10/29 14:11:53;;;;;;;0.10;0.10;;;;;;;;;;5070653;28;20036;-89
2023/10/29 14:14:20;;;;;;;0.10;0.10;;;;;;;;;;5053941;28;20044;-88
2023/10/29 14:16:46;;;;;;;0.10;0.10;;;;;;;;;;5054150;28;20056;-90
2023/10/29 14:19:12;;;;;;;0.10;0.10;;;;;;;;;;5037257;28;20036;-90
2023/10/29 14:21:38;;;;;;;0.10;0.10;;;;;;;;;;5054235;28;20046;-90
2023/10/29 14:24:07;;;;;;;0.10;0.10;;;;;;;;;;5037148;28;20044;-88
2023/10/29 14:26:33;;;;;;;0.10;0.10;;;;;;;;;;5070767;28;20127;-90
2023/10/29 14:28:59;;;;;;;0.20;0.20;;;;;;;;;;5053271;28;20036;-90
2023/10/29 14:31:25;;;;;;;0.10;0.10;;;;;;;;;;5087114;28;20045;-91
2023/10/29 14:33:51;;;;;;;0.10;0.10;;;;;;;;;;5053778;28;20435;-92
2023/10/29 14:36:23;;;;;;;0.10;0.10;;;;;;;;;;5070741;28;20337;-90
2023/10/29 14:38:52;;;;;;;0.10;0.10;;;;;;;;;;5054316;28;20110;-89
2023/10/29 14:41:18;;;;;;;0.10;0.10;;;;;;;;;;5055240;28;20048;-90